CheckWX is a tool to help pilots better visualize weather data.  It is not intended as a substitute for an official pre-flight weather briefing.

08:32:28 UTC

KSGR TAF
Sugar Land Regional Airport
Houston, Texas, USA
KSGR 240530Z 2406/2506 16012KT P6SM VCSH SCT015 BKN025 OVC035 FM240800 17010KT P6SM VCSH BKN015 OVC025 FM241200 20008KT P6SM -SHRA SCT008 OVC015 TEMPO 2412/2416 3SM SHRA BKN008 OVC015 FM241700 27011KT P6SM SCT015 BKN035 FM241900 29011KT P6SM BKN040 BKN250 FM242100 31009KT P6SM SCT060 BKN250 FM250200 32003KT P6SM SCT250

Feb-24@
06:00 UTC

Feb-24 @ 06:00 UTC

Feb-24@
08:00 UTC

Feb-24 @ 08:00 UTC

KSGR 240530Z 2406/2506 16012KT P6SM VCSH SCT015 BKN025 OVC035

Expired

Wind
  • 160° at 12 KTS
Cloud Levels
  • Scattered at 1,500' AGL
  • Broken at 2,500' AGL
  • Overcast at 3,500' AGL

Feb-24@
08:00 UTC

Feb-24 @ 08:00 UTC

Feb-24@
12:00 UTC

Feb-24 @ 12:00 UTC

FM240800 17010KT P6SM VCSH BKN015 OVC025

From

From Standard forecast or significant change

Wind
  • 170° at 10 KTS
Cloud Levels
  • Broken at 1,500' AGL
  • Overcast at 2,500' AGL

Feb-24@
12:00 UTC

Feb-24 @ 12:00 UTC

Feb-24@
16:00 UTC

Feb-24 @ 16:00 UTC

TEMPO 2412/2416 3SM SHRA BKN008 OVC015

Temporary

Temporary Changes expected for less than half the time period

Conditions
Rain
Cloud Levels
  • Broken at 800' AGL
  • Overcast at 1,500' AGL

Feb-24@
12:00 UTC

Feb-24 @ 12:00 UTC

Feb-24@
17:00 UTC

Feb-24 @ 17:00 UTC

FM241200 20008KT P6SM -SHRA SCT008 OVC015

From

From Standard forecast or significant change

Wind
  • 200° at 8 KTS
Conditions
Light Rain
Cloud Levels
  • Scattered at 800' AGL
  • Overcast at 1,500' AGL

Feb-24@
17:00 UTC

Feb-24 @ 17:00 UTC

Feb-24@
19:00 UTC

Feb-24 @ 19:00 UTC

FM241700 27011KT P6SM SCT015 BKN035

From

From Standard forecast or significant change

Wind
  • 270° at 11 KTS
Cloud Levels
  • Scattered at 1,500' AGL
  • Broken at 3,500' AGL

Feb-24@
19:00 UTC

Feb-24 @ 19:00 UTC

Feb-24@
21:00 UTC

Feb-24 @ 21:00 UTC

FM241900 29011KT P6SM BKN040 BKN250

From

From Standard forecast or significant change

Wind
  • 290° at 11 KTS
Cloud Levels
  • Broken at 4,000' AGL
  • Broken at 25,000' AGL

Feb-24@
21:00 UTC

Feb-24 @ 21:00 UTC

Feb-25@
02:00 UTC

Feb-25 @ 02:00 UTC

FM242100 31009KT P6SM SCT060 BKN250

From

From Standard forecast or significant change

Wind
  • 310° at 9 KTS
Cloud Levels
  • Scattered at 6,000' AGL
  • Broken at 25,000' AGL

Feb-25@
02:00 UTC

Feb-25 @ 02:00 UTC

Feb-25@
06:00 UTC

Feb-25 @ 06:00 UTC

FM250200 32003KT P6SM SCT250

From

From Standard forecast or significant change

Wind
  • 320° at 3 KTS
Cloud Levels
  • Scattered at 25,000' AGL